sensor_id;sensor_type;location;lat;lon;timestamp;P1;durP1;ratioP1;P2;durP2;ratioP2
52534;SDS011;38443;53.164;5.802;2023-11-19T00:04:38;21.45;;;5.63;;
52534;SDS011;38443;53.164;5.802;2023-11-19T00:07:06;25.40;;;7.50;;
52534;SDS011;38443;53.164;5.802;2023-11-19T00:09:35;26.67;;;6.30;;
52534;SDS011;38443;53.164;5.802;2023-11-19T00:12:02;19.55;;;6.63;;
52534;SDS011;38443;53.164;5.802;2023-11-19T00:14:29;14.10;;;5.38;;
52534;SDS011;38443;53.164;5.802;2023-11-19T00:19:20;22.23;;;6.97;;
52534;SDS011;38443;53.164;5.802;2023-11-19T00:21:46;21.23;;;5.75;;
52534;SDS011;38443;53.164;5.802;2023-11-19T00:26:37;21.73;;;5.82;;
52534;SDS011;38443;53.164;5.802;2023-11-19T00:29:03;20.30;;;5.53;;
52534;SDS011;38443;53.164;5.802;2023-11-19T00:33:54;29.45;;;6.20;;
52534;SDS011;38443;53.164;5.802;2023-11-19T00:36:20;18.23;;;5.13;;
52534;SDS011;38443;53.164;5.802;2023-11-19T00:38:45;13.40;;;5.60;;
52534;SDS011;38443;53.164;5.802;2023-11-19T00:41:11;20.33;;;6.13;;
52534;SDS011;38443;53.164;5.802;2023-11-19T00:43:36;21.95;;;6.07;;
52534;SDS011;38443;53.164;5.802;2023-11-19T00:46:02;20.13;;;6.35;;
52534;SDS011;38443;53.164;5.802;2023-11-19T00:48:28;23.75;;;6.78;;
52534;SDS011;38443;53.164;5.802;2023-11-19T00:53:19;22.90;;;6.25;;
52534;SDS011;38443;53.164;5.802;2023-11-19T00:55:44;24.15;;;6.57;;
52534;SDS011;38443;53.164;5.802;2023-11-19T00:58:09;21.85;;;6.47;;
52534;SDS011;38443;53.164;5.802;2023-11-19T01:00:35;26.55;;;5.38;;
52534;SDS011;38443;53.164;5.802;2023-11-19T01:03:00;29.33;;;7.85;;
52534;SDS011;38443;53.164;5.802;2023-11-19T01:05:25;24.38;;;6.47;;
52534;SDS011;38443;53.164;5.802;2023-11-19T01:07:51;23.33;;;5.85;;
52534;SDS011;38443;53.164;5.802;2023-11-19T01:10:19;27.35;;;7.57;;
52534;SDS011;38443;53.164;5.802;2023-11-19T01:12:44;15.38;;;5.45;;
52534;SDS011;38443;53.164;5.802;2023-11-19T01:15:10;23.15;;;5.68;;
52534;SDS011;38443;53.164;5.802;2023-11-19T01:17:36;22.55;;;6.22;;
52534;SDS011;38443;53.164;5.802;2023-11-19T01:20:03;21.17;;;6.10;;
52534;SDS011;38443;53.164;5.802;2023-11-19T01:22:31;30.42;;;7.03;;
52534;SDS011;38443;53.164;5.802;2023-11-19T01:27:23;16.83;;;5.63;;
52534;SDS011;38443;53.164;5.802;2023-11-19T01:32:14;17.67;;;5.37;;
52534;SDS011;38443;53.164;5.802;2023-11-19T01:34:40;30.73;;;5.93;;
52534;SDS011;38443;53.164;5.802;2023-11-19T01:37:05;23.38;;;6.30;;
52534;SDS011;38443;53.164;5.802;2023-11-19T01:41:56;24.80;;;7.00;;
52534;SDS011;38443;53.164;5.802;2023-11-19T01:46:46;23.13;;;5.47;;
52534;SDS011;38443;53.164;5.802;2023-11-19T01:49:14;28.70;;;6.15;;
52534;SDS011;38443;53.164;5.802;2023-11-19T01:51:40;32.72;;;7.03;;
52534;SDS011;38443;53.164;5.802;2023-11-19T01:56:32;24.70;;;6.47;;
52534;SDS011;38443;53.164;5.802;2023-11-19T01:58:59;24.88;;;6.35;;
52534;SDS011;38443;53.164;5.802;2023-11-19T02:01:25;19.45;;;6.38;;
52534;SDS011;38443;53.164;5.802;2023-11-19T02:06:16;22.73;;;6.20;;
52534;SDS011;38443;53.164;5.802;2023-11-19T02:11:08;25.50;;;6.45;;
52534;SDS011;38443;53.164;5.802;2023-11-19T02:13:34;21.17;;;6.88;;
52534;SDS011;38443;53.164;5.802;2023-11-19T02:16:01;29.45;;;6.43;;
52534;SDS011;38443;53.164;5.802;2023-11-19T02:18:28;19.17;;;6.80;;
52534;SDS011;38443;53.164;5.802;2023-11-19T02:23:20;20.80;;;6.53;;
52534;SDS011;38443;53.164;5.802;2023-11-19T02:25:47;24.40;;;6.18;;
52534;SDS011;38443;53.164;5.802;2023-11-19T02:28:25;25.98;;;6.85;;
52534;SDS011;38443;53.164;5.802;2023-11-19T02:33:15;23.17;;;5.93;;
52534;SDS011;38443;53.164;5.802;2023-11-19T02:38:06;32.87;;;5.87;;
52534;SDS011;38443;53.164;5.802;2023-11-19T02:40:32;18.70;;;6.40;;
52534;SDS011;38443;53.164;5.802;2023-11-19T02:45:23;20.55;;;6.93;;
52534;SDS011;38443;53.164;5.802;2023-11-19T02:47:49;23.48;;;6.47;;
52534;SDS011;38443;53.164;5.802;2023-11-19T02:52:40;23.20;;;7.27;;
52534;SDS011;38443;53.164;5.802;2023-11-19T02:55:10;18.60;;;5.57;;
52534;SDS011;38443;53.164;5.802;2023-11-19T02:57:37;21.20;;;5.40;;
52534;SDS011;38443;53.164;5.802;2023-11-19T03:00:05;25.00;;;6.85;;
52534;SDS011;38443;53.164;5.802;2023-11-19T03:02:38;22.65;;;6.10;;
52534;SDS011;38443;53.164;5.802;2023-11-19T03:05:10;23.30;;;6.45;;
52534;SDS011;38443;53.164;5.802;2023-11-19T03:07:37;30.05;;;6.55;;
52534;SDS011;38443;53.164;5.802;2023-11-19T03:12:30;22.52;;;5.93;;
52534;SDS011;38443;53.164;5.802;2023-11-19T03:17:21;22.47;;;6.33;;
52534;SDS011;38443;53.164;5.802;2023-11-19T03:19:46;25.80;;;6.65;;
52534;SDS011;38443;53.164;5.802;2023-11-19T03:22:13;39.30;;;7.50;;
52534;SDS011;38443;53.164;5.802;2023-11-19T03:24:39;25.80;;;7.03;;
52534;SDS011;38443;53.164;5.802;2023-11-19T03:29:30;29.60;;;7.50;;
52534;SDS011;38443;53.164;5.802;2023-11-19T03:31:55;27.77;;;7.03;;
52534;SDS011;38443;53.164;5.802;2023-11-19T03:34:20;29.70;;;6.68;;
52534;SDS011;38443;53.164;5.802;2023-11-19T03:36:46;28.63;;;6.65;;
52534;SDS011;38443;53.164;5.802;2023-11-19T03:39:11;31.05;;;7.47;;
52534;SDS011;38443;53.164;5.802;2023-11-19T03:41:37;28.15;;;6.80;;
52534;SDS011;38443;53.164;5.802;2023-11-19T03:44:02;21.52;;;6.35;;
52534;SDS011;38443;53.164;5.802;2023-11-19T03:46:27;28.40;;;7.30;;
52534;SDS011;38443;53.164;5.802;2023-11-19T03:48:54;21.88;;;7.75;;
52534;SDS011;38443;53.164;5.802;2023-11-19T03:53:45;26.50;;;6.07;;
52534;SDS011;38443;53.164;5.802;2023-11-19T03:56:11;27.75;;;6.20;;
52534;SDS011;38443;53.164;5.802;2023-11-19T03:58:37;23.90;;;6.22;;
52534;SDS011;38443;53.164;5.802;2023-11-19T04:01:04;40.15;;;7.13;;
52534;SDS011;38443;53.164;5.802;2023-11-19T04:03:36;20.17;;;6.05;;
52534;SDS011;38443;53.164;5.802;2023-11-19T04:08:27;23.02;;;6.00;;
52534;SDS011;38443;53.164;5.802;2023-11-19T04:10:52;27.55;;;6.65;;
52534;SDS011;38443;53.164;5.802;2023-11-19T04:13:18;26.85;;;7.28;;
52534;SDS011;38443;53.164;5.802;2023-11-19T04:15:44;30.13;;;6.53;;
52534;SDS011;38443;53.164;5.802;2023-11-19T04:20:35;19.65;;;6.00;;
52534;SDS011;38443;53.164;5.802;2023-11-19T04:23:01;25.85;;;6.15;;
52534;SDS011;38443;53.164;5.802;2023-11-19T04:27:52;35.97;;;8.57;;
52534;SDS011;38443;53.164;5.802;2023-11-19T04:30:18;36.15;;;6.60;;
52534;SDS011;38443;53.164;5.802;2023-11-19T04:32:43;32.58;;;7.07;;
52534;SDS011;38443;53.164;5.802;2023-11-19T04:35:09;25.92;;;6.13;;
52534;SDS011;38443;53.164;5.802;2023-11-19T04:37:35;21.73;;;5.55;;
52534;SDS011;38443;53.164;5.802;2023-11-19T04:40:00;26.45;;;7.75;;
52534;SDS011;38443;53.164;5.802;2023-11-19T04:42:26;26.77;;;7.10;;
52534;SDS011;38443;53.164;5.802;2023-11-19T04:44:51;30.63;;;8.02;;
52534;SDS011;38443;53.164;5.802;2023-11-19T04:47:16;43.53;;;8.20;;
52534;SDS011;38443;53.164;5.802;2023-11-19T04:49:44;31.55;;;7.82;;
52534;SDS011;38443;53.164;5.802;2023-11-19T04:54:40;39.70;;;7.47;;
52534;SDS011;38443;53.164;5.802;2023-11-19T04:57:09;24.25;;;5.90;;
52534;SDS011;38443;53.164;5.802;2023-11-19T04:59:38;34.75;;;6.93;;
52534;SDS011;38443;53.164;5.802;2023-11-19T05:04:29;31.00;;;6.95;;
52534;SDS011;38443;53.164;5.802;2023-11-19T05:06:55;36.45;;;7.63;;
52534;SDS011;38443;53.164;5.802;2023-11-19T05:11:45;33.27;;;7.00;;
52534;SDS011;38443;53.164;5.802;2023-11-19T05:16:39;37.85;;;7.78;;
52534;SDS011;38443;53.164;5.802;2023-11-19T05:19:04;29.08;;;7.57;;
52534;SDS011;38443;53.164;5.802;2023-11-19T05:23:55;35.75;;;6.30;;
52534;SDS011;38443;53.164;5.802;2023-11-19T05:26:22;37.10;;;6.75;;
52534;SDS011;38443;53.164;5.802;2023-11-19T05:28:48;37.03;;;6.55;;
52534;SDS011;38443;53.164;5.802;2023-11-19T05:33:39;31.20;;;8.10;;
52534;SDS011;38443;53.164;5.802;2023-11-19T05:36:05;19.30;;;6.70;;
52534;SDS011;38443;53.164;5.802;2023-11-19T05:38:33;27.67;;;5.38;;
52534;SDS011;38443;53.164;5.802;2023-11-19T05:43:23;26.10;;;6.17;;
52534;SDS011;38443;53.164;5.802;2023-11-19T05:48:14;38.67;;;7.53;;
52534;SDS011;38443;53.164;5.802;2023-11-19T05:53:05;27.98;;;5.78;;
52534;SDS011;38443;53.164;5.802;2023-11-19T05:55:34;33.40;;;5.85;;
52534;SDS011;38443;53.164;5.802;2023-11-19T05:58:00;38.75;;;9.13;;
52534;SDS011;38443;53.164;5.802;2023-11-19T06:02:51;32.38;;;5.88;;
52534;SDS011;38443;53.164;5.802;2023-11-19T06:05:17;26.48;;;7.40;;
52534;SDS011;38443;53.164;5.802;2023-11-19T06:10:07;31.80;;;5.37;;
52534;SDS011;38443;53.164;5.802;2023-11-19T06:12:34;24.75;;;6.82;;
52534;SDS011;38443;53.164;5.802;2023-11-19T06:15:03;25.02;;;5.82;;
52534;SDS011;38443;53.164;5.802;2023-11-19T06:17:30;27.20;;;6.03;;
52534;SDS011;38443;53.164;5.802;2023-11-19T06:22:20;27.77;;;8.37;;
52534;SDS011;38443;53.164;5.802;2023-11-19T06:27:11;22.37;;;5.97;;
52534;SDS011;38443;53.164;5.802;2023-11-19T06:32:01;20.43;;;7.47;;
52534;SDS011;38443;53.164;5.802;2023-11-19T06:36:52;25.40;;;7.47;;
52534;SDS011;38443;53.164;5.802;2023-11-19T06:39:18;26.95;;;6.72;;
52534;SDS011;38443;53.164;5.802;2023-11-19T06:41:46;27.35;;;6.47;;
52534;SDS011;38443;53.164;5.802;2023-11-19T06:44:12;30.48;;;6.03;;
52534;SDS011;38443;53.164;5.802;2023-11-19T06:46:38;35.08;;;6.53;;
52534;SDS011;38443;53.164;5.802;2023-11-19T06:51:29;23.47;;;7.40;;
52534;SDS011;38443;53.164;5.802;2023-11-19T06:56:20;19.05;;;5.78;;
52534;SDS011;38443;53.164;5.802;2023-11-19T06:58:47;22.92;;;7.47;;
52534;SDS011;38443;53.164;5.802;2023-11-19T07:01:13;28.83;;;5.70;;
52534;SDS011;38443;53.164;5.802;2023-11-19T07:03:40;25.33;;;6.60;;
52534;SDS011;38443;53.164;5.802;2023-11-19T07:08:30;27.30;;;5.53;;
52534;SDS011;38443;53.164;5.802;2023-11-19T07:10:56;23.95;;;7.63;;
52534;SDS011;38443;53.164;5.802;2023-11-19T07:13:21;18.67;;;7.00;;
52534;SDS011;38443;53.164;5.802;2023-11-19T07:15:46;19.90;;;5.50;;
52534;SDS011;38443;53.164;5.802;2023-11-19T07:20:37;27.40;;;5.20;;
52534;SDS011;38443;53.164;5.802;2023-11-19T07:25:28;34.50;;;7.82;;
52534;SDS011;38443;53.164;5.802;2023-11-19T07:27:53;24.10;;;6.30;;
52534;SDS011;38443;53.164;5.802;2023-11-19T07:30:19;27.77;;;5.10;;
52534;SDS011;38443;53.164;5.802;2023-11-19T07:32:44;36.72;;;7.22;;
52534;SDS011;38443;53.164;5.802;2023-11-19T07:35:09;29.83;;;6.13;;
52534;SDS011;38443;53.164;5.802;2023-11-19T07:37:35;28.75;;;6.65;;
52534;SDS011;38443;53.164;5.802;2023-11-19T07:40:00;23.95;;;6.05;;
52534;SDS011;38443;53.164;5.802;2023-11-19T07:42:25;23.77;;;5.57;;
52534;SDS011;38443;53.164;5.802;2023-11-19T07:44:51;28.00;;;5.57;;
52534;SDS011;38443;53.164;5.802;2023-11-19T07:47:16;26.95;;;5.97;;
52534;SDS011;38443;53.164;5.802;2023-11-19T07:49:41;22.02;;;5.25;;
52534;SDS011;38443;53.164;5.802;2023-11-19T07:52:09;26.77;;;5.87;;
52534;SDS011;38443;53.164;5.802;2023-11-19T07:56:59;23.70;;;5.97;;
52534;SDS011;38443;53.164;5.802;2023-11-19T08:01:50;31.00;;;6.90;;
52534;SDS011;38443;53.164;5.802;2023-11-19T08:04:15;20.30;;;5.55;;
52534;SDS011;38443;53.164;5.802;2023-11-19T08:06:40;19.02;;;5.38;;
52534;SDS011;38443;53.164;5.802;2023-11-19T08:09:06;25.42;;;6.47;;
52534;SDS011;38443;53.164;5.802;2023-11-19T08:11:31;18.83;;;5.72;;
52534;SDS011;38443;53.164;5.802;2023-11-19T08:13:58;29.25;;;6.50;;
52534;SDS011;38443;53.164;5.802;2023-11-19T08:18:49;30.70;;;6.63;;
52534;SDS011;38443;53.164;5.802;2023-11-19T08:23:40;32.10;;;5.88;;
52534;SDS011;38443;53.164;5.802;2023-11-19T08:26:05;38.33;;;8.05;;
52534;SDS011;38443;53.164;5.802;2023-11-19T08:28:31;26.92;;;7.07;;
52534;SDS011;38443;53.164;5.802;2023-11-19T08:30:56;24.80;;;6.07;;
52534;SDS011;38443;53.164;5.802;2023-11-19T08:33:21;25.10;;;7.28;;
52534;SDS011;38443;53.164;5.802;2023-11-19T08:35:47;24.15;;;7.85;;
52534;SDS011;38443;53.164;5.802;2023-11-19T08:38:13;18.88;;;5.38;;
52534;SDS011;38443;53.164;5.802;2023-11-19T08:40:38;25.85;;;7.40;;
52534;SDS011;38443;53.164;5.802;2023-11-19T08:43:03;26.27;;;6.40;;
52534;SDS011;38443;53.164;5.802;2023-11-19T08:45:29;25.55;;;5.90;;
52534;SDS011;38443;53.164;5.802;2023-11-19T08:50:20;21.97;;;7.23;;
52534;SDS011;38443;53.164;5.802;2023-11-19T08:55:10;22.93;;;6.30;;
52534;SDS011;38443;53.164;5.802;2023-11-19T08:57:41;33.42;;;7.03;;
52534;SDS011;38443;53.164;5.802;2023-11-19T09:02:33;25.73;;;6.40;;
52534;SDS011;38443;53.164;5.802;2023-11-19T09:05:00;24.52;;;6.18;;
52534;SDS011;38443;53.164;5.802;2023-11-19T09:07:26;31.00;;;6.20;;
52534;SDS011;38443;53.164;5.802;2023-11-19T09:12:17;25.17;;;6.07;;
52534;SDS011;38443;53.164;5.802;2023-11-19T09:17:08;16.60;;;5.53;;
52534;SDS011;38443;53.164;5.802;2023-11-19T09:19:34;23.40;;;6.63;;
52534;SDS011;38443;53.164;5.802;2023-11-19T09:22:00;26.25;;;6.22;;
52534;SDS011;38443;53.164;5.802;2023-11-19T09:26:51;23.10;;;5.70;;
52534;SDS011;38443;53.164;5.802;2023-11-19T09:29:16;21.98;;;5.00;;
52534;SDS011;38443;53.164;5.802;2023-11-19T09:31:42;26.95;;;5.43;;
52534;SDS011;38443;53.164;5.802;2023-11-19T09:34:07;19.80;;;6.22;;
52534;SDS011;38443;53.164;5.802;2023-11-19T09:36:33;24.63;;;6.45;;
52534;SDS011;38443;53.164;5.802;2023-11-19T09:41:25;20.27;;;6.28;;
52534;SDS011;38443;53.164;5.802;2023-11-19T09:43:52;26.58;;;6.00;;
52534;SDS011;38443;53.164;5.802;2023-11-19T09:48:44;35.38;;;6.03;;
52534;SDS011;38443;53.164;5.802;2023-11-19T09:51:10;33.60;;;6.78;;
52534;SDS011;38443;53.164;5.802;2023-11-19T09:53:36;23.25;;;6.25;;
52534;SDS011;38443;53.164;5.802;2023-11-19T09:56:03;24.85;;;6.13;;
52534;SDS011;38443;53.164;5.802;2023-11-19T09:58:30;25.52;;;5.75;;
52534;SDS011;38443;53.164;5.802;2023-11-19T10:00:56;19.83;;;4.97;;
52534;SDS011;38443;53.164;5.802;2023-11-19T10:03:32;18.13;;;4.72;;
52534;SDS011;38443;53.164;5.802;2023-11-19T10:06:08;19.27;;;5.05;;
52534;SDS011;38443;53.164;5.802;2023-11-19T10:08:38;24.17;;;5.43;;
52534;SDS011;38443;53.164;5.802;2023-11-19T10:11:06;23.65;;;5.25;;
52534;SDS011;38443;53.164;5.802;2023-11-19T10:13:34;23.88;;;5.38;;
52534;SDS011;38443;53.164;5.802;2023-11-19T10:16:03;26.17;;;5.32;;
52534;SDS011;38443;53.164;5.802;2023-11-19T10:18:33;18.38;;;5.88;;
52534;SDS011;38443;53.164;5.802;2023-11-19T10:21:06;21.95;;;5.22;;
52534;SDS011;38443;53.164;5.802;2023-11-19T10:23:46;19.13;;;5.07;;
52534;SDS011;38443;53.164;5.802;2023-11-19T10:26:15;17.83;;;5.82;;
52534;SDS011;38443;53.164;5.802;2023-11-19T10:28:41;21.30;;;5.45;;
52534;SDS011;38443;53.164;5.802;2023-11-19T10:31:09;18.58;;;6.22;;
52534;SDS011;38443;53.164;5.802;2023-11-19T10:33:34;18.98;;;5.03;;
52534;SDS011;38443;53.164;5.802;2023-11-19T10:36:00;19.98;;;4.88;;
52534;SDS011;38443;53.164;5.802;2023-11-19T10:38:25;17.80;;;5.15;;
52534;SDS011;38443;53.164;5.802;2023-11-19T10:40:51;23.83;;;5.70;;
52534;SDS011;38443;53.164;5.802;2023-11-19T10:43:21;26.77;;;6.13;;
52534;SDS011;38443;53.164;5.802;2023-11-19T10:45:48;15.93;;;5.32;;
52534;SDS011;38443;53.164;5.802;2023-11-19T10:48:13;23.80;;;6.53;;
52534;SDS011;38443;53.164;5.802;2023-11-19T10:50:39;19.10;;;5.03;;
52534;SDS011;38443;53.164;5.802;2023-11-19T10:53:08;20.10;;;5.43;;
52534;SDS011;38443;53.164;5.802;2023-11-19T10:55:35;21.33;;;4.30;;
52534;SDS011;38443;53.164;5.802;2023-11-19T10:58:06;17.98;;;4.53;;
52534;SDS011;38443;53.164;5.802;2023-11-19T11:00:41;21.85;;;6.75;;
52534;SDS011;38443;53.164;5.802;2023-11-19T11:03:16;19.10;;;4.88;;
52534;SDS011;38443;53.164;5.802;2023-11-19T11:05:43;16.60;;;4.38;;
52534;SDS011;38443;53.164;5.802;2023-11-19T11:08:12;23.65;;;4.82;;
52534;SDS011;38443;53.164;5.802;2023-11-19T11:10:45;19.75;;;4.93;;
52534;SDS011;38443;53.164;5.802;2023-11-19T11:13:17;18.10;;;5.20;;
52534;SDS011;38443;53.164;5.802;2023-11-19T11:15:43;17.42;;;4.90;;
52534;SDS011;38443;53.164;5.802;2023-11-19T11:18:12;20.50;;;5.75;;
52534;SDS011;38443;53.164;5.802;2023-11-19T11:20:38;26.23;;;5.70;;
52534;SDS011;38443;53.164;5.802;2023-11-19T11:28:37;23.05;;;7.07;;
52534;SDS011;38443;53.164;5.802;2023-11-19T11:31:15;26.88;;;6.60;;
52534;SDS011;38443;53.164;5.802;2023-11-19T11:36:34;19.73;;;5.55;;
52534;SDS011;38443;53.164;5.802;2023-11-19T11:39:11;19.77;;;4.65;;
52534;SDS011;38443;53.164;5.802;2023-11-19T11:41:38;34.28;;;5.55;;
52534;SDS011;38443;53.164;5.802;2023-11-19T11:44:03;24.15;;;5.90;;
52534;SDS011;38443;53.164;5.802;2023-11-19T11:48:59;16.48;;;4.07;;
52534;SDS011;38443;53.164;5.802;2023-11-19T12:02:10;21.80;;;5.18;;
52534;SDS011;38443;53.164;5.802;2023-11-19T12:04:41;11.60;;;3.92;;
52534;SDS011;38443;53.164;5.802;2023-11-19T12:07:14;18.20;;;4.32;;
52534;SDS011;38443;53.164;5.802;2023-11-19T12:09:42;21.50;;;5.00;;
52534;SDS011;38443;53.164;5.802;2023-11-19T12:17:50;17.88;;;5.82;;
52534;SDS011;38443;53.164;5.802;2023-11-19T12:20:16;17.27;;;4.07;;
52534;SDS011;38443;53.164;5.802;2023-11-19T12:22:43;22.80;;;5.90;;
52534;SDS011;38443;53.164;5.802;2023-11-19T12:25:11;12.65;;;5.22;;
52534;SDS011;38443;53.164;5.802;2023-11-19T12:27:47;20.27;;;4.15;;
52534;SDS011;38443;53.164;5.802;2023-11-19T12:30:25;15.57;;;4.50;;
52534;SDS011;38443;53.164;5.802;2023-11-19T12:32:50;25.13;;;5.20;;
52534;SDS011;38443;53.164;5.802;2023-11-19T12:35:18;15.40;;;4.30;;
52534;SDS011;38443;53.164;5.802;2023-11-19T12:37:48;19.27;;;4.68;;
52534;SDS011;38443;53.164;5.802;2023-11-19T12:40:16;16.05;;;5.13;;
52534;SDS011;38443;53.164;5.802;2023-11-19T12:42:44;20.63;;;5.07;;
52534;SDS011;38443;53.164;5.802;2023-11-19T12:45:10;12.93;;;4.68;;
52534;SDS011;38443;53.164;5.802;2023-11-19T12:47:37;19.77;;;5.43;;
52534;SDS011;38443;53.164;5.802;2023-11-19T12:50:03;20.73;;;6.03;;
52534;SDS011;38443;53.164;5.802;2023-11-19T12:52:29;23.52;;;4.57;;
52534;SDS011;38443;53.164;5.802;2023-11-19T12:54:55;25.33;;;4.30;;
52534;SDS011;38443;53.164;5.802;2023-11-19T12:57:21;14.32;;;4.85;;
52534;SDS011;38443;53.164;5.802;2023-11-19T13:00:00;26.77;;;6.00;;
52534;SDS011;38443;53.164;5.802;2023-11-19T13:02:44;15.63;;;4.32;;
52534;SDS011;38443;53.164;5.802;2023-11-19T13:05:26;16.50;;;4.93;;
52534;SDS011;38443;53.164;5.802;2023-11-19T13:07:58;23.40;;;5.82;;
52534;SDS011;38443;53.164;5.802;2023-11-19T13:10:34;12.90;;;3.78;;
52534;SDS011;38443;53.164;5.802;2023-11-19T13:13:16;14.93;;;4.13;;
52534;SDS011;38443;53.164;5.802;2023-11-19T13:15:41;20.23;;;4.80;;
52534;SDS011;38443;53.164;5.802;2023-11-19T13:18:08;19.50;;;4.80;;
52534;SDS011;38443;53.164;5.802;2023-11-19T13:20:33;19.98;;;4.00;;
52534;SDS011;38443;53.164;5.802;2023-11-19T13:23:02;21.02;;;5.88;;
52534;SDS011;38443;53.164;5.802;2023-11-19T13:25:28;17.20;;;5.35;;
52534;SDS011;38443;53.164;5.802;2023-11-19T13:27:55;21.33;;;4.35;;
52534;SDS011;38443;53.164;5.802;2023-11-19T13:30:21;22.60;;;4.25;;
52534;SDS011;38443;53.164;5.802;2023-11-19T13:32:47;21.42;;;4.90;;
52534;SDS011;38443;53.164;5.802;2023-11-19T13:35:13;17.30;;;4.38;;
52534;SDS011;38443;53.164;5.802;2023-11-19T13:37:39;14.70;;;4.13;;
52534;SDS011;38443;53.164;5.802;2023-11-19T13:40:06;13.38;;;4.20;;
52534;SDS011;38443;53.164;5.802;2023-11-19T13:42:32;21.38;;;4.95;;
52534;SDS011;38443;53.164;5.802;2023-11-19T13:44:57;21.35;;;4.85;;
52534;SDS011;38443;53.164;5.802;2023-11-19T13:47:23;14.52;;;3.90;;
52534;SDS011;38443;53.164;5.802;2023-11-19T13:49:48;20.63;;;4.75;;
52534;SDS011;38443;53.164;5.802;2023-11-19T13:52:14;15.60;;;4.10;;
52534;SDS011;38443;53.164;5.802;2023-11-19T13:54:39;20.55;;;4.60;;
52534;SDS011;38443;53.164;5.802;2023-11-19T13:57:06;18.92;;;4.38;;
52534;SDS011;38443;53.164;5.802;2023-11-19T13:59:31;14.68;;;3.88;;
52534;SDS011;38443;53.164;5.802;2023-11-19T14:01:57;16.52;;;4.25;;
52534;SDS011;38443;53.164;5.802;2023-11-19T14:04:23;25.30;;;5.43;;
52534;SDS011;38443;53.164;5.802;2023-11-19T14:06:48;13.77;;;4.28;;
52534;SDS011;38443;53.164;5.802;2023-11-19T14:09:13;18.45;;;4.43;;
52534;SDS011;38443;53.164;5.802;2023-11-19T14:11:39;20.05;;;5.25;;
52534;SDS011;38443;53.164;5.802;2023-11-19T14:14:05;18.95;;;3.95;;
52534;SDS011;38443;53.164;5.802;2023-11-19T14:16:31;20.13;;;4.22;;
52534;SDS011;38443;53.164;5.802;2023-11-19T14:18:57;14.82;;;4.47;;
52534;SDS011;38443;53.164;5.802;2023-11-19T14:21:22;15.85;;;4.13;;
52534;SDS011;38443;53.164;5.802;2023-11-19T14:23:48;13.93;;;3.95;;
52534;SDS011;38443;53.164;5.802;2023-11-19T14:26:13;17.30;;;3.65;;
52534;SDS011;38443;53.164;5.802;2023-11-19T14:28:38;19.05;;;4.07;;
52534;SDS011;38443;53.164;5.802;2023-11-19T14:31:04;18.92;;;4.63;;
52534;SDS011;38443;53.164;5.802;2023-11-19T14:33:30;12.70;;;4.28;;
52534;SDS011;38443;53.164;5.802;2023-11-19T14:35:55;12.30;;;3.92;;
52534;SDS011;38443;53.164;5.802;2023-11-19T14:38:20;21.85;;;6.43;;
52534;SDS011;38443;53.164;5.802;2023-11-19T14:40:46;11.40;;;4.65;;
52534;SDS011;38443;53.164;5.802;2023-11-19T14:43:11;27.73;;;4.43;;
52534;SDS011;38443;53.164;5.802;2023-11-19T14:45:37;20.13;;;4.30;;
52534;SDS011;38443;53.164;5.802;2023-11-19T14:48:02;15.80;;;4.15;;
52534;SDS011;38443;53.164;5.802;2023-11-19T14:50:28;14.45;;;3.35;;
52534;SDS011;38443;53.164;5.802;2023-11-19T14:52:53;14.43;;;4.53;;
52534;SDS011;38443;53.164;5.802;2023-11-19T14:55:18;19.30;;;4.18;;
52534;SDS011;38443;53.164;5.802;2023-11-19T14:57:44;18.20;;;4.55;;
52534;SDS011;38443;53.164;5.802;2023-11-19T15:00:10;14.27;;;3.92;;
52534;SDS011;38443;53.164;5.802;2023-11-19T15:02:39;19.85;;;5.05;;
52534;SDS011;38443;53.164;5.802;2023-11-19T15:05:06;16.60;;;3.90;;
52534;SDS011;38443;53.164;5.802;2023-11-19T15:07:34;18.90;;;4.43;;
52534;SDS011;38443;53.164;5.802;2023-11-19T15:10:00;16.77;;;5.05;;
52534;SDS011;38443;53.164;5.802;2023-11-19T15:12:27;16.77;;;4.90;;
52534;SDS011;38443;53.164;5.802;2023-11-19T15:14:53;22.77;;;5.72;;
52534;SDS011;38443;53.164;5.802;2023-11-19T15:17:18;19.80;;;5.28;;
52534;SDS011;38443;53.164;5.802;2023-11-19T15:19:43;16.05;;;4.57;;
52534;SDS011;38443;53.164;5.802;2023-11-19T15:22:10;19.55;;;4.40;;
52534;SDS011;38443;53.164;5.802;2023-11-19T15:24:36;16.33;;;4.93;;
52534;SDS011;38443;53.164;5.802;2023-11-19T15:27:07;12.40;;;4.18;;
52534;SDS011;38443;53.164;5.802;2023-11-19T15:29:34;16.70;;;4.18;;
52534;SDS011;38443;53.164;5.802;2023-11-19T15:32:00;19.48;;;5.57;;
52534;SDS011;38443;53.164;5.802;2023-11-19T15:34:25;13.68;;;3.70;;
52534;SDS011;38443;53.164;5.802;2023-11-19T15:36:50;21.10;;;4.80;;
52534;SDS011;38443;53.164;5.802;2023-11-19T15:39:16;18.80;;;4.35;;
52534;SDS011;38443;53.164;5.802;2023-11-19T15:41:41;10.68;;;3.65;;
52534;SDS011;38443;53.164;5.802;2023-11-19T15:44:07;22.70;;;4.15;;
52534;SDS011;38443;53.164;5.802;2023-11-19T15:46:32;14.00;;;5.00;;
52534;SDS011;38443;53.164;5.802;2023-11-19T15:48:58;20.35;;;4.50;;
52534;SDS011;38443;53.164;5.802;2023-11-19T15:51:23;16.67;;;4.18;;
52534;SDS011;38443;53.164;5.802;2023-11-19T15:53:49;11.57;;;3.83;;
52534;SDS011;38443;53.164;5.802;2023-11-19T15:56:14;18.33;;;3.95;;
52534;SDS011;38443;53.164;5.802;2023-11-19T15:58:40;23.65;;;4.75;;
52534;SDS011;38443;53.164;5.802;2023-11-19T16:01:06;14.18;;;4.05;;
52534;SDS011;38443;53.164;5.802;2023-11-19T16:03:33;14.65;;;4.03;;
52534;SDS011;38443;53.164;5.802;2023-11-19T16:05:58;13.80;;;3.78;;
52534;SDS011;38443;53.164;5.802;2023-11-19T16:08:23;8.55;;;4.00;;
52534;SDS011;38443;53.164;5.802;2023-11-19T16:10:49;16.63;;;4.53;;
52534;SDS011;38443;53.164;5.802;2023-11-19T16:13:15;14.48;;;5.07;;
52534;SDS011;38443;53.164;5.802;2023-11-19T16:15:40;12.40;;;3.33;;
52534;SDS011;38443;53.164;5.802;2023-11-19T16:20:34;15.00;;;4.82;;
52534;SDS011;38443;53.164;5.802;2023-11-19T16:23:00;18.05;;;3.92;;
52534;SDS011;38443;53.164;5.802;2023-11-19T16:25:26;12.88;;;4.35;;
52534;SDS011;38443;53.164;5.802;2023-11-19T16:27:52;14.77;;;3.80;;
52534;SDS011;38443;53.164;5.802;2023-11-19T16:30:17;10.52;;;3.97;;
52534;SDS011;38443;53.164;5.802;2023-11-19T16:32:52;19.73;;;4.20;;
52534;SDS011;38443;53.164;5.802;2023-11-19T16:35:22;15.05;;;3.80;;
52534;SDS011;38443;53.164;5.802;2023-11-19T16:40:13;12.52;;;4.88;;
52534;SDS011;38443;53.164;5.802;2023-11-19T16:42:38;15.10;;;4.20;;
52534;SDS011;38443;53.164;5.802;2023-11-19T16:45:04;16.15;;;3.72;;
52534;SDS011;38443;53.164;5.802;2023-11-19T16:47:31;14.25;;;4.28;;
52534;SDS011;38443;53.164;5.802;2023-11-19T16:52:21;19.50;;;5.43;;
52534;SDS011;38443;53.164;5.802;2023-11-19T16:57:12;19.27;;;4.07;;
52534;SDS011;38443;53.164;5.802;2023-11-19T17:02:04;15.20;;;4.50;;
52534;SDS011;38443;53.164;5.802;2023-11-19T17:04:30;23.52;;;4.88;;
52534;SDS011;38443;53.164;5.802;2023-11-19T17:09:20;18.80;;;4.65;;
52534;SDS011;38443;53.164;5.802;2023-11-19T17:11:46;16.85;;;5.20;;
52534;SDS011;38443;53.164;5.802;2023-11-19T17:14:11;17.70;;;5.03;;
52534;SDS011;38443;53.164;5.802;2023-11-19T17:16:37;20.23;;;5.75;;
52534;SDS011;38443;53.164;5.802;2023-11-19T17:19:04;16.38;;;4.57;;
52534;SDS011;38443;53.164;5.802;2023-11-19T17:23:54;20.00;;;4.35;;
52534;SDS011;38443;53.164;5.802;2023-11-19T17:26:20;17.55;;;5.03;;
52534;SDS011;38443;53.164;5.802;2023-11-19T17:28:45;23.27;;;5.13;;
52534;SDS011;38443;53.164;5.802;2023-11-19T17:31:10;13.80;;;3.88;;